Time;durP1;ratioP1;P1;durP2;ratioP2;P2;SDS_P1;SDS_P2;PMS_P1;PMS_P2;Temp;Humidity;BMP_temperature;BMP_pressure;BME280_temperature;BME280_humidity;BME280_pressure;Samples;Min_cycle;Max_cycle;Signal;HPM_P1;HPM_P2
2022/04/07 00:02:08;;;;;;;17.42;7.22;;;;;;;;;;4953864;28;20447;-35
2022/04/07 00:04:34;;;;;;;11.02;6.93;;;;;;;;;;4953651;28;20030;-35
2022/04/07 00:06:59;;;;;;;14.52;6.88;;;;;;;;;;4952168;28;20089;-35
2022/04/07 00:09:25;;;;;;;12.30;6.30;;;;;;;;;;4953437;28;20035;-35
2022/04/07 00:11:50;;;;;;;14.75;8.15;;;;;;;;;;4953495;28;20071;-35
2022/04/07 00:14:15;;;;;;;10.90;6.13;;;;;;;;;;4953418;28;20046;-35
2022/04/07 00:16:41;;;;;;;18.00;6.28;;;;;;;;;;4953380;28;20027;-35
2022/04/07 00:19:07;;;;;;;12.65;7.15;;;;;;;;;;4953245;28;20027;-35
2022/04/07 00:21:35;;;;;;;15.98;6.38;;;;;;;;;;4953447;28;20426;-35
2022/04/07 00:24:01;;;;;;;11.82;6.65;;;;;;;;;;4952724;28;20659;-35
2022/04/07 00:26:27;;;;;;;9.63;6.55;;;;;;;;;;4953242;28;20038;-35
2022/04/07 00:28:53;;;;;;;15.68;7.28;;;;;;;;;;4968057;28;20446;-35
2022/04/07 00:31:18;;;;;;;15.02;6.95;;;;;;;;;;4953416;28;20082;-35
2022/04/07 00:33:44;;;;;;;11.13;6.32;;;;;;;;;;4953462;28;20040;-35
2022/04/07 00:36:09;;;;;;;10.48;6.15;;;;;;;;;;4953127;28;20024;-35
2022/04/07 00:38:34;;;;;;;12.20;6.10;;;;;;;;;;4953183;29;20283;-35
2022/04/07 00:41:00;;;;;;;9.75;5.05;;;;;;;;;;4953340;28;20371;-35
2022/04/07 00:43:29;;;;;;;12.38;6.15;;;;;;;;;;4953024;28;20925;-35
2022/04/07 00:45:55;;;;;;;8.82;5.25;;;;;;;;;;4951781;28;20485;-35
2022/04/07 00:48:20;;;;;;;10.90;5.03;;;;;;;;;;4952984;28;20043;-35
2022/04/07 00:50:46;;;;;;;9.27;5.72;;;;;;;;;;4953129;28;20034;-35
2022/04/07 00:53:12;;;;;;;12.82;4.85;;;;;;;;;;4953005;28;20094;-35
2022/04/07 00:55:37;;;;;;;5.22;3.45;;;;;;;;;;4953081;28;20019;-35
2022/04/07 00:58:03;;;;;;;5.13;3.40;;;;;;;;;;4952944;28;20383;-35
2022/04/07 01:00:30;;;;;;;4.38;2.65;;;;;;;;;;4953051;28;20378;-35
2022/04/07 01:02:55;;;;;;;5.50;3.65;;;;;;;;;;4953027;28;20169;-35
2022/04/07 01:05:23;;;;;;;5.57;3.95;;;;;;;;;;4952958;28;20094;-35
2022/04/07 01:07:49;;;;;;;4.57;3.40;;;;;;;;;;4953201;28;20043;-35
2022/04/07 01:10:14;;;;;;;4.28;2.40;;;;;;;;;;4952752;28;20429;-35
2022/04/07 01:12:40;;;;;;;4.65;2.97;;;;;;;;;;4953218;28;20028;-35
2022/04/07 01:15:06;;;;;;;6.88;3.05;;;;;;;;;;4952910;28;20023;-35
2022/04/07 01:17:32;;;;;;;3.13;2.35;;;;;;;;;;4952809;28;20155;-35
2022/04/07 01:19:58;;;;;;;6.65;3.55;;;;;;;;;;4952940;28;20110;-35
2022/04/07 01:22:23;;;;;;;6.78;3.97;;;;;;;;;;4952823;28;20028;-34
2022/04/07 01:24:48;;;;;;;3.45;2.97;;;;;;;;;;4952785;28;20038;-35
2022/04/07 01:27:14;;;;;;;5.45;3.42;;;;;;;;;;4952682;28;20027;-35
2022/04/07 01:29:40;;;;;;;6.32;3.85;;;;;;;;;;4951569;29;20289;-35
2022/04/07 01:32:15;;;;;;;10.25;4.28;;;;;;;;;;4952637;28;20024;-34
2022/04/07 01:34:40;;;;;;;9.65;3.78;;;;;;;;;;4954192;28;20514;-35
2022/04/07 01:37:06;;;;;;;11.63;4.25;;;;;;;;;;4956132;28;20020;-35
2022/04/07 01:39:32;;;;;;;9.05;3.17;;;;;;;;;;4956258;28;20118;-35
2022/04/07 01:41:57;;;;;;;4.97;3.08;;;;;;;;;;4956448;28;20454;-35
2022/04/07 01:44:24;;;;;;;5.63;4.00;;;;;;;;;;4955821;28;20402;-35
2022/04/07 01:46:51;;;;;;;5.90;2.45;;;;;;;;;;4956007;28;20027;-35
2022/04/07 01:49:18;;;;;;;4.68;2.50;;;;;;;;;;4955948;28;20039;-35
2022/04/07 01:51:44;;;;;;;3.63;2.47;;;;;;;;;;4956273;28;20397;-35
2022/04/07 01:54:11;;;;;;;8.27;3.72;;;;;;;;;;4956117;28;20044;-35
2022/04/07 01:56:40;;;;;;;3.33;2.78;;;;;;;;;;4955840;28;20138;-35
2022/04/07 01:59:08;;;;;;;7.28;2.53;;;;;;;;;;4955735;28;20106;-35
2022/04/07 02:01:34;;;;;;;6.35;2.95;;;;;;;;;;4970597;28;20037;-35
2022/04/07 02:03:59;;;;;;;6.28;3.00;;;;;;;;;;4956050;28;20024;-34
2022/04/07 02:06:25;;;;;;;6.85;3.67;;;;;;;;;;4955607;28;20066;-35
2022/04/07 02:08:51;;;;;;;5.40;2.97;;;;;;;;;;4954386;28;20035;-35
2022/04/07 02:11:16;;;;;;;6.85;3.47;;;;;;;;;;4955771;28;20039;-35
2022/04/07 02:13:42;;;;;;;3.13;2.42;;;;;;;;;;4955509;28;20031;-35
2022/04/07 02:16:08;;;;;;;6.35;4.05;;;;;;;;;;4955716;28;20062;-35
2022/04/07 02:18:34;;;;;;;6.07;3.45;;;;;;;;;;4955489;28;20031;-35
2022/04/07 02:21:00;;;;;;;8.98;4.97;;;;;;;;;;4955669;28;20720;-35
2022/04/07 02:23:27;;;;;;;9.73;4.00;;;;;;;;;;4955728;28;20508;-35
2022/04/07 02:25:52;;;;;;;5.53;3.75;;;;;;;;;;4955336;28;20028;-35
2022/04/07 02:28:18;;;;;;;5.65;3.38;;;;;;;;;;4955178;28;20039;-35
2022/04/07 02:30:44;;;;;;;7.93;4.68;;;;;;;;;;4955496;28;20035;-35
2022/04/07 02:33:09;;;;;;;7.30;4.35;;;;;;;;;;4955148;28;20043;-35
2022/04/07 02:35:35;;;;;;;7.82;3.80;;;;;;;;;;4970010;28;20030;-35
2022/04/07 02:38:00;;;;;;;3.63;2.83;;;;;;;;;;4955148;28;20042;-35
2022/04/07 02:40:26;;;;;;;8.32;3.67;;;;;;;;;;4955031;28;20106;-35
2022/04/07 02:42:51;;;;;;;5.80;3.40;;;;;;;;;;4954860;28;20043;-35
2022/04/07 02:45:17;;;;;;;6.70;3.13;;;;;;;;;;4954940;28;20035;-35
2022/04/07 02:47:42;;;;;;;5.78;3.58;;;;;;;;;;4954725;28;20094;-35
2022/04/07 02:50:07;;;;;;;6.95;3.22;;;;;;;;;;4954974;28;20490;-35
2022/04/07 02:52:33;;;;;;;6.88;2.72;;;;;;;;;;4954879;28;20031;-35
2022/04/07 02:54:59;;;;;;;4.57;2.33;;;;;;;;;;4954843;28;20490;-35
2022/04/07 02:57:24;;;;;;;4.15;3.08;;;;;;;;;;4954574;28;20050;-35
2022/04/07 02:59:50;;;;;;;5.68;3.00;;;;;;;;;;4955107;28;20023;-35
2022/04/07 03:02:16;;;;;;;3.25;2.20;;;;;;;;;;4954634;29;20501;-35
2022/04/07 03:04:41;;;;;;;7.63;3.97;;;;;;;;;;4954609;28;20015;-35
2022/04/07 03:07:07;;;;;;;6.65;3.63;;;;;;;;;;4954742;28;20035;-35
2022/04/07 03:09:32;;;;;;;5.68;3.67;;;;;;;;;;4954515;28;20478;-35
2022/04/07 03:11:58;;;;;;;5.93;3.15;;;;;;;;;;4954794;28;20089;-35
2022/04/07 03:14:27;;;;;;;4.60;3.55;;;;;;;;;;4954382;28;20055;-35
2022/04/07 03:16:52;;;;;;;3.50;2.83;;;;;;;;;;4954336;28;20054;-34
2022/04/07 03:19:17;;;;;;;11.23;4.97;;;;;;;;;;4954344;28;20023;-35
2022/04/07 03:21:43;;;;;;;6.57;3.92;;;;;;;;;;4954616;28;20394;-35
2022/04/07 03:24:09;;;;;;;7.53;3.63;;;;;;;;;;4954204;28;20574;-35
2022/04/07 03:26:34;;;;;;;6.03;3.58;;;;;;;;;;4954467;28;20034;-35
2022/04/07 03:29:00;;;;;;;3.45;2.90;;;;;;;;;;4954295;28;20070;-34
2022/04/07 03:31:25;;;;;;;4.05;2.10;;;;;;;;;;4953934;28;20059;-35
2022/04/07 03:33:50;;;;;;;2.88;2.22;;;;;;;;;;4954160;28;20022;-35
2022/04/07 03:36:16;;;;;;;3.35;2.40;;;;;;;;;;4954254;28;20416;-35
2022/04/07 03:38:41;;;;;;;4.50;2.50;;;;;;;;;;4954043;28;20505;-35
2022/04/07 03:41:07;;;;;;;3.17;2.03;;;;;;;;;;4953924;28;20062;-34
2022/04/07 03:43:35;;;;;;;4.57;2.28;;;;;;;;;;4953932;28;20122;-35
2022/04/07 03:46:01;;;;;;;5.93;1.90;;;;;;;;;;4954048;28;20030;-35
2022/04/07 03:48:26;;;;;;;5.72;2.47;;;;;;;;;;4953777;28;20039;-35
2022/04/07 03:50:52;;;;;;;3.17;2.35;;;;;;;;;;4953738;28;20046;-35
2022/04/07 03:53:17;;;;;;;5.55;3.58;;;;;;;;;;4953707;28;20026;-35
2022/04/07 03:55:42;;;;;;;2.85;2.10;;;;;;;;;;4953973;28;20035;-35
2022/04/07 03:58:08;;;;;;;3.33;2.53;;;;;;;;;;4953515;28;20019;-35
2022/04/07 04:00:33;;;;;;;8.50;2.63;;;;;;;;;;4953641;28;20553;-35
2022/04/07 04:02:59;;;;;;;3.55;2.95;;;;;;;;;;4953667;28;20024;-35
2022/04/07 04:05:24;;;;;;;2.38;2.05;;;;;;;;;;4953551;28;20117;-35
2022/04/07 04:07:49;;;;;;;2.58;2.33;;;;;;;;;;4953632;28;20634;-35
2022/04/07 04:10:15;;;;;;;3.00;2.22;;;;;;;;;;4953662;28;20039;-35
2022/04/07 04:12:41;;;;;;;2.95;2.20;;;;;;;;;;4953882;28;20023;-35
2022/04/07 04:15:06;;;;;;;2.72;2.10;;;;;;;;;;4953591;28;20126;-35
2022/04/07 04:17:32;;;;;;;2.90;1.85;;;;;;;;;;4953693;28;20398;-35
2022/04/07 04:19:58;;;;;;;3.42;2.50;;;;;;;;;;4953442;28;20482;-34
2022/04/07 04:22:23;;;;;;;4.35;1.90;;;;;;;;;;4953331;28;20030;-35
2022/04/07 04:24:49;;;;;;;3.05;2.25;;;;;;;;;;4953992;28;20038;-35
2022/04/07 04:27:14;;;;;;;4.03;2.30;;;;;;;;;;4953284;28;20106;-35
2022/04/07 04:29:40;;;;;;;2.35;1.95;;;;;;;;;;4953484;29;20035;-35
2022/04/07 04:32:06;;;;;;;2.38;1.85;;;;;;;;;;4953247;28;20490;-35
2022/04/07 04:34:31;;;;;;;2.42;1.80;;;;;;;;;;4953582;28;20118;-35
2022/04/07 04:36:57;;;;;;;2.53;1.77;;;;;;;;;;4953203;28;20031;-35
2022/04/07 04:39:22;;;;;;;5.93;2.38;;;;;;;;;;4953178;28;20031;-35
2022/04/07 04:41:48;;;;;;;4.13;2.78;;;;;;;;;;4953296;28;20113;-34
2022/04/07 04:44:13;;;;;;;4.18;2.55;;;;;;;;;;4952947;28;20066;-35
2022/04/07 04:46:38;;;;;;;4.57;2.33;;;;;;;;;;4951930;28;20050;-35
2022/04/07 04:49:04;;;;;;;3.85;2.38;;;;;;;;;;4953134;28;20043;-34
2022/04/07 04:51:29;;;;;;;2.63;1.70;;;;;;;;;;4952997;28;20043;-35
2022/04/07 04:53:55;;;;;;;3.97;2.83;;;;;;;;;;4953068;28;20154;-35
2022/04/07 04:56:20;;;;;;;3.15;1.83;;;;;;;;;;4953016;28;20019;-35
2022/04/07 04:58:45;;;;;;;7.85;2.20;;;;;;;;;;4953069;28;20090;-35
2022/04/07 05:01:11;;;;;;;5.43;2.28;;;;;;;;;;4952950;28;20015;-34
2022/04/07 05:03:36;;;;;;;4.45;2.60;;;;;;;;;;4953308;29;20114;-34
2022/04/07 05:06:03;;;;;;;3.60;2.58;;;;;;;;;;4952918;28;20051;-34
2022/04/07 05:08:28;;;;;;;6.25;3.15;;;;;;;;;;4953143;28;20023;-35
2022/04/07 05:10:54;;;;;;;4.00;2.33;;;;;;;;;;4956191;28;20045;-34
2022/04/07 05:13:21;;;;;;;3.47;2.78;;;;;;;;;;4956708;28;20023;-34
2022/04/07 05:15:47;;;;;;;4.30;2.90;;;;;;;;;;4956929;28;20394;-34
2022/04/07 05:18:13;;;;;;;7.13;3.13;;;;;;;;;;4956447;28;20035;-35
2022/04/07 05:20:38;;;;;;;5.45;2.92;;;;;;;;;;4956650;28;20024;-35
2022/04/07 05:23:04;;;;;;;5.15;3.00;;;;;;;;;;4956726;28;20035;-34
2022/04/07 05:25:29;;;;;;;5.25;3.15;;;;;;;;;;4956721;28;20577;-35
2022/04/07 05:27:55;;;;;;;10.57;3.53;;;;;;;;;;4955142;29;20031;-34
2022/04/07 05:30:21;;;;;;;7.55;3.53;;;;;;;;;;4956264;28;20027;-34
2022/04/07 05:32:46;;;;;;;9.88;3.13;;;;;;;;;;4956382;28;20038;-35
2022/04/07 05:35:12;;;;;;;6.85;3.15;;;;;;;;;;4956205;28;20097;-35
2022/04/07 05:37:38;;;;;;;5.50;3.15;;;;;;;;;;4956469;28;20038;-35
2022/04/07 05:40:04;;;;;;;5.78;3.75;;;;;;;;;;4956129;28;20024;-35
2022/04/07 05:42:30;;;;;;;5.45;3.60;;;;;;;;;;4955987;28;20042;-35
2022/04/07 05:44:55;;;;;;;6.03;3.80;;;;;;;;;;4956366;29;20028;-35
2022/04/07 05:47:21;;;;;;;3.55;3.05;;;;;;;;;;4955910;28;20509;-35
2022/04/07 05:49:46;;;;;;;4.30;2.67;;;;;;;;;;4955999;28;20023;-35
2022/04/07 05:52:11;;;;;;;6.68;3.90;;;;;;;;;;4955991;28;20050;-35
2022/04/07 05:54:37;;;;;;;6.13;3.70;;;;;;;;;;4956192;28;20031;-35
2022/04/07 05:57:03;;;;;;;6.18;3.92;;;;;;;;;;4955878;28;20512;-35
2022/04/07 05:59:28;;;;;;;6.30;3.47;;;;;;;;;;4955794;28;20030;-34
2022/04/07 06:01:54;;;;;;;7.40;3.00;;;;;;;;;;4956039;28;20046;-34
2022/04/07 06:04:19;;;;;;;11.27;4.13;;;;;;;;;;4955751;28;20031;-35
2022/04/07 06:06:45;;;;;;;8.02;4.50;;;;;;;;;;4955723;28;20035;-35
2022/04/07 06:09:10;;;;;;;8.88;3.78;;;;;;;;;;4955589;28;20023;-35
2022/04/07 06:11:36;;;;;;;7.15;4.22;;;;;;;;;;4955645;28;20043;-35
2022/04/07 06:14:02;;;;;;;8.88;4.60;;;;;;;;;;4955693;28;20022;-35
2022/04/07 06:16:27;;;;;;;10.45;4.90;;;;;;;;;;4955413;28;20035;-35
2022/04/07 06:18:53;;;;;;;8.98;4.97;;;;;;;;;;4955779;28;20414;-35
2022/04/07 06:21:19;;;;;;;12.70;4.82;;;;;;;;;;4954267;28;20482;-34
2022/04/07 06:23:45;;;;;;;10.02;6.20;;;;;;;;;;4955402;28;20621;-35
2022/04/07 06:26:11;;;;;;;12.65;6.65;;;;;;;;;;4970086;28;20035;-35
2022/04/07 06:28:36;;;;;;;11.73;6.78;;;;;;;;;;4955386;28;20065;-35
2022/04/07 06:31:01;;;;;;;16.05;7.07;;;;;;;;;;4955474;28;20179;-34
2022/04/07 06:33:27;;;;;;;13.68;6.90;;;;;;;;;;4970139;28;20484;-35
2022/04/07 06:35:52;;;;;;;11.35;6.45;;;;;;;;;;4955293;28;20107;-34
2022/04/07 06:38:18;;;;;;;10.88;6.43;;;;;;;;;;4955080;28;20034;-35
2022/04/07 06:40:44;;;;;;;11.13;6.60;;;;;;;;;;4955213;28;20129;-35
2022/04/07 06:43:10;;;;;;;10.43;6.82;;;;;;;;;;4954789;28;20129;-35
2022/04/07 06:45:36;;;;;;;9.85;6.28;;;;;;;;;;4955041;28;20024;-35
2022/04/07 06:48:02;;;;;;;11.63;6.53;;;;;;;;;;4955194;28;20033;-35
2022/04/07 06:50:27;;;;;;;10.18;5.90;;;;;;;;;;4955008;28;20082;-34
2022/04/07 06:52:53;;;;;;;12.40;6.28;;;;;;;;;;4954919;28;20019;-35
2022/04/07 06:55:19;;;;;;;13.75;7.00;;;;;;;;;;4955061;28;20038;-35
2022/04/07 06:57:54;;;;;;;12.80;7.03;;;;;;;;;;4955068;28;20419;-35
2022/04/07 07:00:20;;;;;;;10.90;5.47;;;;;;;;;;4954985;28;20027;-35
2022/04/07 07:02:46;;;;;;;10.05;6.57;;;;;;;;;;4954728;28;20098;-35
2022/04/07 07:05:12;;;;;;;11.48;6.03;;;;;;;;;;4954536;28;20031;-35
2022/04/07 07:07:37;;;;;;;11.43;6.40;;;;;;;;;;4954639;28;20407;-35
2022/04/07 07:10:03;;;;;;;9.35;6.25;;;;;;;;;;4954573;28;20043;-35
2022/04/07 07:12:28;;;;;;;8.90;6.07;;;;;;;;;;4954402;28;20019;-34
2022/04/07 07:14:54;;;;;;;9.20;4.57;;;;;;;;;;4954428;28;20023;-35
2022/04/07 07:17:22;;;;;;;11.93;4.40;;;;;;;;;;4954382;28;20046;-35
2022/04/07 07:19:47;;;;;;;7.63;4.22;;;;;;;;;;4954611;28;20035;-35
2022/04/07 07:22:13;;;;;;;6.80;4.07;;;;;;;;;;4954286;28;20019;-35
2022/04/07 07:24:38;;;;;;;9.57;5.53;;;;;;;;;;4954596;28;20035;-35
2022/04/07 07:27:03;;;;;;;8.30;5.57;;;;;;;;;;4954130;28;20469;-35
2022/04/07 07:29:29;;;;;;;11.63;5.45;;;;;;;;;;4954192;28;20035;-35
2022/04/07 07:31:55;;;;;;;8.25;5.43;;;;;;;;;;4954024;28;20035;-34
2022/04/07 07:34:20;;;;;;;13.82;7.93;;;;;;;;;;4954057;28;20062;-34
2022/04/07 07:36:45;;;;;;;10.20;6.20;;;;;;;;;;4954348;28;20069;-35
2022/04/07 07:39:11;;;;;;;12.85;6.57;;;;;;;;;;4954288;28;20363;-35
2022/04/07 07:41:38;;;;;;;15.57;7.57;;;;;;;;;;4953942;28;20030;-34
2022/04/07 07:44:04;;;;;;;7.97;4.50;;;;;;;;;;4953885;28;20059;-35
2022/04/07 07:46:30;;;;;;;7.75;3.30;;;;;;;;;;4953789;28;20034;-35
2022/04/07 07:48:56;;;;;;;12.25;4.97;;;;;;;;;;4953854;28;20027;-35
2022/04/07 07:51:21;;;;;;;5.57;3.70;;;;;;;;;;4953746;28;20082;-35
2022/04/07 07:53:50;;;;;;;3.47;2.30;;;;;;;;;;4954150;28;20549;-35
2022/04/07 07:56:15;;;;;;;4.22;3.22;;;;;;;;;;4953658;28;20047;-35
2022/04/07 07:58:41;;;;;;;5.45;3.13;;;;;;;;;;4953745;28;20141;-35
2022/04/07 08:01:06;;;;;;;8.15;4.25;;;;;;;;;;4953753;28;20038;-35
2022/04/07 08:03:32;;;;;;;7.82;3.88;;;;;;;;;;4953463;28;20030;-35
2022/04/07 08:05:57;;;;;;;4.22;3.45;;;;;;;;;;4953700;28;20365;-35
2022/04/07 08:08:23;;;;;;;4.22;3.10;;;;;;;;;;4953802;28;20038;-35
2022/04/07 08:10:49;;;;;;;3.08;2.38;;;;;;;;;;4953509;29;20058;-35
2022/04/07 08:13:14;;;;;;;6.75;3.30;;;;;;;;;;4953696;28;20023;-34
2022/04/07 08:15:40;;;;;;;4.03;2.95;;;;;;;;;;4953557;28;20394;-35
2022/04/07 08:18:06;;;;;;;6.85;3.92;;;;;;;;;;4953456;28;20470;-35
2022/04/07 08:20:32;;;;;;;6.68;3.47;;;;;;;;;;4953632;28;20039;-35
2022/04/07 08:22:57;;;;;;;6.28;3.17;;;;;;;;;;4953393;28;20431;-35
2022/04/07 08:25:22;;;;;;;3.83;2.80;;;;;;;;;;4968092;28;20042;-35
2022/04/07 08:27:48;;;;;;;5.07;3.80;;;;;;;;;;4953384;28;20114;-35
2022/04/07 08:30:14;;;;;;;6.00;3.60;;;;;;;;;;4953163;28;20089;-35
2022/04/07 08:32:39;;;;;;;7.07;3.45;;;;;;;;;;4953361;28;20039;-35
2022/04/07 08:35:05;;;;;;;5.40;3.78;;;;;;;;;;4968124;28;20363;-35
2022/04/07 08:37:31;;;;;;;5.22;3.70;;;;;;;;;;4953192;28;20039;-35
2022/04/07 08:39:56;;;;;;;6.43;4.28;;;;;;;;;;4953539;28;20022;-35
2022/04/07 08:42:22;;;;;;;8.55;4.10;;;;;;;;;;4952961;28;20031;-35
2022/04/07 08:44:48;;;;;;;6.45;4.30;;;;;;;;;;4954964;28;20032;-35
2022/04/07 08:47:18;;;;;;;12.82;4.90;;;;;;;;;;4957343;28;20031;-35
2022/04/07 08:49:44;;;;;;;7.13;3.53;;;;;;;;;;4957372;28;20031;-34
2022/04/07 08:52:10;;;;;;;7.70;4.13;;;;;;;;;;4957009;28;20050;-35
2022/04/07 08:54:35;;;;;;;6.45;4.25;;;;;;;;;;4957037;29;20034;-34
2022/04/07 08:57:01;;;;;;;8.27;4.07;;;;;;;;;;4957288;28;20032;-35
2022/04/07 08:59:26;;;;;;;5.00;3.47;;;;;;;;;;4956881;28;20030;-35
2022/04/07 09:01:59;;;;;;;9.27;4.10;;;;;;;;;;4957191;28;20061;-35
2022/04/07 09:04:25;;;;;;;4.32;3.05;;;;;;;;;;4956810;28;20027;-35
2022/04/07 09:06:54;;;;;;;4.07;3.10;;;;;;;;;;4957044;28;20082;-35
2022/04/07 09:09:22;;;;;;;10.32;4.97;;;;;;;;;;4956762;28;20051;-34
2022/04/07 09:11:54;;;;;;;9.65;3.75;;;;;;;;;;4956746;28;20031;-35
2022/04/07 09:14:19;;;;;;;8.15;4.22;;;;;;;;;;4956639;28;20485;-35
2022/04/07 09:16:45;;;;;;;8.35;3.58;;;;;;;;;;4956693;28;20027;-35
2022/04/07 09:19:10;;;;;;;6.82;3.78;;;;;;;;;;4956861;28;20038;-35
2022/04/07 09:21:36;;;;;;;8.00;3.35;;;;;;;;;;4956564;28;20030;-35
2022/04/07 09:24:05;;;;;;;5.32;3.25;;;;;;;;;;4956562;28;20070;-35
2022/04/07 09:26:33;;;;;;;6.90;4.35;;;;;;;;;;4956442;28;20055;-35
2022/04/07 09:29:05;;;;;;;7.30;4.57;;;;;;;;;;4956434;28;20046;-35
2022/04/07 09:31:35;;;;;;;8.23;4.60;;;;;;;;;;4956289;28;20054;-35
2022/04/07 09:34:02;;;;;;;8.63;4.13;;;;;;;;;;4956296;28;20733;-34
2022/04/07 09:36:27;;;;;;;4.65;3.25;;;;;;;;;;4956202;28;20174;-35
2022/04/07 09:38:54;;;;;;;6.70;4.00;;;;;;;;;;4956236;28;20110;-35
2022/04/07 09:41:20;;;;;;;5.68;4.22;;;;;;;;;;4956144;28;20035;-35
2022/04/07 09:43:45;;;;;;;10.32;4.10;;;;;;;;;;4956134;28;20051;-35
2022/04/07 09:46:12;;;;;;;8.45;4.80;;;;;;;;;;4956015;28;20031;-35
2022/04/07 09:48:38;;;;;;;8.60;4.78;;;;;;;;;;4956082;28;20471;-35
2022/04/07 09:51:05;;;;;;;10.80;5.18;;;;;;;;;;4956256;28;20122;-35
2022/04/07 09:53:35;;;;;;;9.73;3.47;;;;;;;;;;4955942;28;20730;-35
2022/04/07 09:56:01;;;;;;;6.47;4.07;;;;;;;;;;4955827;28;20034;-35
2022/04/07 09:58:27;;;;;;;8.85;3.88;;;;;;;;;;4955852;28;20074;-35
2022/04/07 10:00:53;;;;;;;10.90;5.38;;;;;;;;;;4955868;29;20037;-35
2022/04/07 10:03:19;;;;;;;7.75;3.92;;;;;;;;;;4955734;28;20023;-35
2022/04/07 10:05:47;;;;;;;9.27;3.63;;;;;;;;;;4955687;28;20034;-35
2022/04/07 10:08:15;;;;;;;11.70;5.65;;;;;;;;;;4970488;28;20026;-35
2022/04/07 10:10:41;;;;;;;8.50;4.60;;;;;;;;;;4956167;28;20419;-35
2022/04/07 10:13:08;;;;;;;8.50;5.20;;;;;;;;;;4955576;28;20114;-35
2022/04/07 10:15:35;;;;;;;7.80;4.47;;;;;;;;;;4955469;28;20105;-35
2022/04/07 10:18:04;;;;;;;9.15;4.38;;;;;;;;;;4955516;28;20486;-35
2022/04/07 10:20:33;;;;;;;7.28;4.07;;;;;;;;;;4955707;28;20031;-35
2022/04/07 10:23:01;;;;;;;7.70;4.88;;;;;;;;;;4955516;28;20042;-35
2022/04/07 10:25:29;;;;;;;10.35;5.28;;;;;;;;;;4955242;28;20112;-35
2022/04/07 10:27:57;;;;;;;7.20;4.20;;;;;;;;;;4955365;28;20027;-35
2022/04/07 10:30:23;;;;;;;8.20;4.72;;;;;;;;;;4955331;28;20098;-35
2022/04/07 10:32:50;;;;;;;10.50;4.90;;;;;;;;;;4955456;28;20371;-35
2022/04/07 10:35:33;;;;;;;9.50;5.72;;;;;;;;;;4970063;28;20090;-35
2022/04/07 10:37:59;;;;;;;12.88;5.15;;;;;;;;;;4955296;28;20031;-35
2022/04/07 10:40:35;;;;;;;8.52;5.13;;;;;;;;;;4955319;28;20386;-35
2022/04/07 10:43:04;;;;;;;9.32;5.18;;;;;;;;;;4955118;28;20562;-35
2022/04/07 10:45:33;;;;;;;12.70;6.22;;;;;;;;;;4955265;28;20039;-35
2022/04/07 10:48:19;;;;;;;8.43;5.13;;;;;;;;;;4969859;28;20023;-35
2022/04/07 10:50:52;;;;;;;8.60;5.22;;;;;;;;;;4963814;28;20075;-35
2022/04/07 10:53:22;;;;;;;10.48;5.53;;;;;;;;;;4954760;28;20482;-35
2022/04/07 10:55:54;;;;;;;11.27;5.60;;;;;;;;;;4955099;28;20045;-35
2022/04/07 10:58:20;;;;;;;9.27;4.90;;;;;;;;;;4954812;28;20510;-36
2022/04/07 11:00:46;;;;;;;10.95;5.32;;;;;;;;;;4954944;28;20035;-35
2022/04/07 11:03:15;;;;;;;10.38;6.32;;;;;;;;;;4954682;28;20019;-35
2022/04/07 11:05:53;;;;;;;5.80;4.28;;;;;;;;;;4954653;28;20154;-35
2022/04/07 11:08:22;;;;;;;8.23;4.22;;;;;;;;;;4953769;28;20409;-35
2022/04/07 11:10:50;;;;;;;10.45;5.88;;;;;;;;;;4954524;28;20066;-36
2022/04/07 11:13:16;;;;;;;11.32;5.93;;;;;;;;;;4954748;28;20035;-35
2022/04/07 11:15:44;;;;;;;12.75;6.03;;;;;;;;;;4953073;29;20478;-34
2022/04/07 11:18:29;;;;;;;10.10;5.15;;;;;;;;;;4954506;28;20042;-35
2022/04/07 11:21:02;;;;;;;12.60;4.65;;;;;;;;;;4954353;28;20082;-35
2022/04/07 11:23:42;;;;;;;8.27;4.95;;;;;;;;;;4954263;28;20093;-35
2022/04/07 11:26:11;;;;;;;12.38;5.40;;;;;;;;;;4954413;28;20074;-35
2022/04/07 11:28:37;;;;;;;9.65;5.00;;;;;;;;;;4954501;28;20026;-35
2022/04/07 11:31:04;;;;;;;10.05;5.50;;;;;;;;;;4954489;28;20047;-40
2022/04/07 11:33:39;;;;;;;14.35;6.40;;;;;;;;;;4954073;28;20019;-35
2022/04/07 11:36:07;;;;;;;8.30;5.57;;;;;;;;;;4954019;28;20734;-35
2022/04/07 11:38:34;;;;;;;10.38;6.57;;;;;;;;;;4954146;28;20019;-36
2022/04/07 11:41:00;;;;;;;7.78;5.20;;;;;;;;;;4954078;28;20038;-35
2022/04/07 11:43:26;;;;;;;11.20;5.85;;;;;;;;;;4953720;28;20110;-35
2022/04/07 11:45:55;;;;;;;11.20;6.88;;;;;;;;;;4954153;28;20027;-35
2022/04/07 11:48:20;;;;;;;9.20;4.55;;;;;;;;;;4953954;28;20027;-35
2022/04/07 11:50:46;;;;;;;9.25;4.95;;;;;;;;;;4953776;28;20135;-35
2022/04/07 11:53:11;;;;;;;13.20;6.80;;;;;;;;;;4953820;28;20066;-35
2022/04/07 11:55:37;;;;;;;10.95;5.40;;;;;;;;;;4968652;28;20414;-35
2022/04/07 11:58:02;;;;;;;15.05;5.38;;;;;;;;;;4953959;28;20026;-35
2022/04/07 12:00:29;;;;;;;7.00;4.80;;;;;;;;;;4953931;28;20133;-35
2022/04/07 12:03:03;;;;;;;11.52;5.82;;;;;;;;;;4953917;28;20023;-36
2022/04/07 12:05:30;;;;;;;7.95;5.05;;;;;;;;;;4953736;28;20032;-35
2022/04/07 12:07:56;;;;;;;10.32;5.30;;;;;;;;;;4953685;28;20109;-35
2022/04/07 12:10:22;;;;;;;10.75;5.22;;;;;;;;;;4953681;28;20031;-35
2022/04/07 12:12:48;;;;;;;8.80;5.15;;;;;;;;;;4953524;28;20386;-35
2022/04/07 12:15:15;;;;;;;9.68;4.82;;;;;;;;;;4953374;28;20047;-35
2022/04/07 12:18:00;;;;;;;8.25;4.82;;;;;;;;;;4953827;28;20359;-35
2022/04/07 12:20:25;;;;;;;7.32;4.75;;;;;;;;;;4953428;28;20035;-35
2022/04/07 12:23:10;;;;;;;10.65;5.70;;;;;;;;;;4953699;28;20462;-35
2022/04/07 12:25:37;;;;;;;8.18;5.25;;;;;;;;;;4953546;28;20035;-35
2022/04/07 12:28:16;;;;;;;6.53;4.13;;;;;;;;;;4953623;28;20528;-35
2022/04/07 12:30:43;;;;;;;8.48;5.38;;;;;;;;;;4967910;28;20479;-35
2022/04/07 12:33:09;;;;;;;8.63;4.78;;;;;;;;;;4953522;28;20081;-35
2022/04/07 12:35:46;;;;;;;7.55;4.63;;;;;;;;;;4953502;28;20040;-35
2022/04/07 12:38:12;;;;;;;7.88;5.18;;;;;;;;;;4953355;28;20094;-34
2022/04/07 12:40:39;;;;;;;10.10;4.88;;;;;;;;;;4953261;28;20026;-35
2022/04/07 12:43:09;;;;;;;8.82;5.07;;;;;;;;;;4953027;28;20051;-35
2022/04/07 12:45:54;;;;;;;14.45;5.93;;;;;;;;;;4967899;28;20107;-35
2022/04/07 12:48:22;;;;;;;7.43;4.95;;;;;;;;;;4953129;28;20030;-35
2022/04/07 12:50:51;;;;;;;8.15;4.40;;;;;;;;;;4953142;28;20050;-35
2022/04/07 12:53:33;;;;;;;7.95;4.97;;;;;;;;;;4953594;28;20039;-35
2022/04/07 12:56:05;;;;;;;9.75;5.32;;;;;;;;;;4953396;28;20504;-35
2022/04/07 12:58:34;;;;;;;13.38;5.13;;;;;;;;;;4953097;28;20237;-35
2022/04/07 13:01:00;;;;;;;7.63;5.40;;;;;;;;;;4953016;29;20023;-35
2022/04/07 13:03:30;;;;;;;5.90;4.10;;;;;;;;;;4953027;28;20063;-35
2022/04/07 13:06:02;;;;;;;11.18;4.57;;;;;;;;;;4952954;28;20110;-35
2022/04/07 13:08:31;;;;;;;7.80;4.60;;;;;;;;;;4952953;28;20031;-35
2022/04/07 13:10:57;;;;;;;8.70;5.63;;;;;;;;;;4952950;28;20035;-36
2022/04/07 13:13:22;;;;;;;8.55;5.63;;;;;;;;;;4952898;28;20043;-35
2022/04/07 13:15:48;;;;;;;8.40;5.43;;;;;;;;;;4952922;28;20019;-35
2022/04/07 13:18:14;;;;;;;7.10;4.45;;;;;;;;;;4952879;28;20031;-35
2022/04/07 13:20:39;;;;;;;11.93;5.13;;;;;;;;;;4952960;28;20024;-35
2022/04/07 13:23:05;;;;;;;11.65;5.63;;;;;;;;;;4967675;28;20110;-35
2022/04/07 13:25:30;;;;;;;8.13;4.43;;;;;;;;;;4952761;28;20478;-35
2022/04/07 13:27:56;;;;;;;10.30;5.18;;;;;;;;;;4952595;28;20031;-35
2022/04/07 13:30:24;;;;;;;9.45;5.63;;;;;;;;;;4953553;28;20055;-35
2022/04/07 13:32:49;;;;;;;6.80;5.13;;;;;;;;;;4956406;29;20038;-35
2022/04/07 13:35:15;;;;;;;6.78;4.45;;;;;;;;;;4956171;28;20467;-35
2022/04/07 13:37:40;;;;;;;8.88;4.88;;;;;;;;;;4956556;28;20043;-35
2022/04/07 13:40:06;;;;;;;14.30;4.15;;;;;;;;;;4956265;28;20016;-35
2022/04/07 13:42:34;;;;;;;12.18;5.05;;;;;;;;;;4955954;28;20094;-35
2022/04/07 13:44:59;;;;;;;7.45;4.82;;;;;;;;;;4956124;28;20035;-35
2022/04/07 13:47:24;;;;;;;14.25;5.57;;;;;;;;;;4956079;28;20031;-35
2022/04/07 13:49:50;;;;;;;9.07;4.75;;;;;;;;;;4956141;28;20086;-35
2022/04/07 13:52:16;;;;;;;6.95;4.00;;;;;;;;;;4955833;28;20046;-35
2022/04/07 13:54:41;;;;;;;6.80;4.63;;;;;;;;;;4956208;28;20065;-35
2022/04/07 13:57:07;;;;;;;12.15;5.35;;;;;;;;;;4956204;28;20441;-35
2022/04/07 13:59:37;;;;;;;5.97;3.85;;;;;;;;;;4955837;28;20505;-35
2022/04/07 14:02:03;;;;;;;10.60;5.13;;;;;;;;;;4955863;28;20019;-35
2022/04/07 14:04:29;;;;;;;5.15;4.18;;;;;;;;;;4955994;28;20027;-35
2022/04/07 14:07:00;;;;;;;10.27;4.47;;;;;;;;;;4970613;28;20406;-35
2022/04/07 14:09:26;;;;;;;6.90;4.50;;;;;;;;;;4955636;28;20035;-35
2022/04/07 14:11:52;;;;;;;6.28;4.07;;;;;;;;;;4955653;28;20031;-35
2022/04/07 14:14:17;;;;;;;9.60;4.45;;;;;;;;;;4955867;28;20082;-35
2022/04/07 14:16:43;;;;;;;7.10;4.10;;;;;;;;;;4955578;28;20023;-35
2022/04/07 14:19:08;;;;;;;8.45;4.07;;;;;;;;;;4954662;28;20031;-35
2022/04/07 14:21:34;;;;;;;12.18;4.78;;;;;;;;;;4955705;28;20622;-35
2022/04/07 14:23:59;;;;;;;8.30;4.90;;;;;;;;;;4955577;28;20027;-35
2022/04/07 14:26:25;;;;;;;7.85;4.07;;;;;;;;;;4955269;28;20102;-35
2022/04/07 14:28:51;;;;;;;9.32;4.35;;;;;;;;;;4970615;28;20036;-35
2022/04/07 14:31:17;;;;;;;5.72;3.78;;;;;;;;;;4955225;28;20489;-35
2022/04/07 14:33:44;;;;;;;9.13;5.38;;;;;;;;;;4955265;28;20542;-35
2022/04/07 14:36:11;;;;;;;7.00;3.97;;;;;;;;;;4955518;28;20027;-35
2022/04/07 14:38:36;;;;;;;6.40;3.67;;;;;;;;;;4955463;28;20053;-35